sensor_id;sensor_type;location;lat;lon;timestamp;pressure;altitude;pressure_sealevel;temperature
15626;BMP180;7912;51.376;6.126;2022-12-18T00:02:01;102500.00;;;-0.80
15626;BMP180;7912;51.376;6.126;2022-12-18T00:04:29;102524.00;;;-0.90
15626;BMP180;7912;51.376;6.126;2022-12-18T00:06:57;102520.00;;;-0.80
15626;BMP180;7912;51.376;6.126;2022-12-18T00:09:24;102521.00;;;-0.80
15626;BMP180;7912;51.376;6.126;2022-12-18T00:12:05;102526.00;;;-0.80
15626;BMP180;7912;51.376;6.126;2022-12-18T00:14:42;102515.00;;;-0.90
15626;BMP180;7912;51.376;6.126;2022-12-18T00:17:09;102521.00;;;-0.90
15626;BMP180;7912;51.376;6.126;2022-12-18T00:19:36;102520.00;;;-0.90
15626;BMP180;7912;51.376;6.126;2022-12-18T00:22:03;102525.00;;;-0.90
15626;BMP180;7912;51.376;6.126;2022-12-18T00:24:31;102510.00;;;-0.90
15626;BMP180;7912;51.376;6.126;2022-12-18T00:26:59;102516.00;;;-0.90
15626;BMP180;7912;51.376;6.126;2022-12-18T00:29:26;102507.00;;;-0.90
15626;BMP180;7912;51.376;6.126;2022-12-18T00:31:53;102499.00;;;-0.90
15626;BMP180;7912;51.376;6.126;2022-12-18T00:34:20;102504.00;;;-0.90
15626;BMP180;7912;51.376;6.126;2022-12-18T00:36:48;102507.00;;;-0.90
15626;BMP180;7912;51.376;6.126;2022-12-18T00:39:15;102512.00;;;-1.00
15626;BMP180;7912;51.376;6.126;2022-12-18T00:41:43;102504.00;;;-1.00
15626;BMP180;7912;51.376;6.126;2022-12-18T00:44:29;102496.00;;;-1.00
15626;BMP180;7912;51.376;6.126;2022-12-18T00:46:56;102503.00;;;-1.00
15626;BMP180;7912;51.376;6.126;2022-12-18T00:49:23;102489.00;;;-1.00
15626;BMP180;7912;51.376;6.126;2022-12-18T00:51:51;102510.00;;;-1.00
15626;BMP180;7912;51.376;6.126;2022-12-18T00:54:18;102515.00;;;-1.10
15626;BMP180;7912;51.376;6.126;2022-12-18T00:56:45;102509.00;;;-1.10
15626;BMP180;7912;51.376;6.126;2022-12-18T00:59:17;102513.00;;;-1.10
15626;BMP180;7912;51.376;6.126;2022-12-18T01:01:45;102509.00;;;-1.10
15626;BMP180;7912;51.376;6.126;2022-12-18T01:04:15;102501.00;;;-1.30
15626;BMP180;7912;51.376;6.126;2022-12-18T01:06:42;102499.00;;;-1.20
15626;BMP180;7912;51.376;6.126;2022-12-18T01:09:10;102502.00;;;-1.20
15626;BMP180;7912;51.376;6.126;2022-12-18T01:11:38;102514.00;;;-1.20
15626;BMP180;7912;51.376;6.126;2022-12-18T01:14:05;102511.00;;;-1.20
15626;BMP180;7912;51.376;6.126;2022-12-18T01:16:33;102503.00;;;-1.20
15626;BMP180;7912;51.376;6.126;2022-12-18T01:19:00;102500.00;;;-1.30
15626;BMP180;7912;51.376;6.126;2022-12-18T01:21:28;102501.00;;;-1.20
15626;BMP180;7912;51.376;6.126;2022-12-18T01:23:57;102517.00;;;-1.30
15626;BMP180;7912;51.376;6.126;2022-12-18T01:26:25;102508.00;;;-1.30
15626;BMP180;7912;51.376;6.126;2022-12-18T01:28:55;102510.00;;;-1.30
15626;BMP180;7912;51.376;6.126;2022-12-18T01:31:29;102510.00;;;-1.30
15626;BMP180;7912;51.376;6.126;2022-12-18T01:34:00;102514.00;;;-1.30
15626;BMP180;7912;51.376;6.126;2022-12-18T01:36:32;102520.00;;;-1.30
15626;BMP180;7912;51.376;6.126;2022-12-18T01:39:09;102510.00;;;-1.30
15626;BMP180;7912;51.376;6.126;2022-12-18T01:41:38;102507.00;;;-1.40
15626;BMP180;7912;51.376;6.126;2022-12-18T01:50:28;102500.00;;;-1.40
15626;BMP180;7912;51.376;6.126;2022-12-18T01:53:10;102505.00;;;-1.40
15626;BMP180;7912;51.376;6.126;2022-12-18T01:55:47;102503.00;;;-1.40
15626;BMP180;7912;51.376;6.126;2022-12-18T01:58:16;102508.00;;;-1.50
15626;BMP180;7912;51.376;6.126;2022-12-18T02:00:44;102505.00;;;-1.50
15626;BMP180;7912;51.376;6.126;2022-12-18T02:03:12;102499.00;;;-1.50
15626;BMP180;7912;51.376;6.126;2022-12-18T02:06:00;102496.00;;;-1.50
15626;BMP180;7912;51.376;6.126;2022-12-18T02:09:13;102488.00;;;-1.50
15626;BMP180;7912;51.376;6.126;2022-12-18T02:14:41;102500.00;;;-1.50
15626;BMP180;7912;51.376;6.126;2022-12-18T02:17:21;102502.00;;;-1.50
15626;BMP180;7912;51.376;6.126;2022-12-18T02:23:18;102513.00;;;-1.60
15626;BMP180;7912;51.376;6.126;2022-12-18T02:26:31;102507.00;;;-1.60
15626;BMP180;7912;51.376;6.126;2022-12-18T02:29:10;102499.00;;;-1.70
15626;BMP180;7912;51.376;6.126;2022-12-18T02:32:09;102499.00;;;-1.70
15626;BMP180;7912;51.376;6.126;2022-12-18T02:34:40;102481.00;;;-1.80
15626;BMP180;7912;51.376;6.126;2022-12-18T02:37:13;102495.00;;;-1.70
15626;BMP180;7912;51.376;6.126;2022-12-18T02:39:44;102496.00;;;-1.70
15626;BMP180;7912;51.376;6.126;2022-12-18T02:42:13;102497.00;;;-1.70
15626;BMP180;7912;51.376;6.126;2022-12-18T02:44:47;102498.00;;;-1.80
15626;BMP180;7912;51.376;6.126;2022-12-18T02:47:21;102479.00;;;-1.70
15626;BMP180;7912;51.376;6.126;2022-12-18T02:56:15;102485.00;;;-1.70
15626;BMP180;7912;51.376;6.126;2022-12-18T02:59:12;102480.00;;;-1.80
15626;BMP180;7912;51.376;6.126;2022-12-18T03:01:58;102478.00;;;-1.70
15626;BMP180;7912;51.376;6.126;2022-12-18T03:07:55;102488.00;;;-1.80
15626;BMP180;7912;51.376;6.126;2022-12-18T03:10:29;102483.00;;;-1.80
15626;BMP180;7912;51.376;6.126;2022-12-18T03:13:09;102471.00;;;-1.80
15626;BMP180;7912;51.376;6.126;2022-12-18T03:15:48;102448.00;;;-1.80
15626;BMP180;7912;51.376;6.126;2022-12-18T03:18:23;102457.00;;;-1.80
15626;BMP180;7912;51.376;6.126;2022-12-18T03:20:55;102470.00;;;-1.80
15626;BMP180;7912;51.376;6.126;2022-12-18T03:23:29;102478.00;;;-1.80
15626;BMP180;7912;51.376;6.126;2022-12-18T03:26:02;102457.00;;;-1.90
15626;BMP180;7912;51.376;6.126;2022-12-18T03:28:39;102469.00;;;-1.80
15626;BMP180;7912;51.376;6.126;2022-12-18T03:31:13;102469.00;;;-1.80
15626;BMP180;7912;51.376;6.126;2022-12-18T03:33:51;102469.00;;;-1.80
15626;BMP180;7912;51.376;6.126;2022-12-18T03:36:19;102467.00;;;-1.90
15626;BMP180;7912;51.376;6.126;2022-12-18T03:38:46;102475.00;;;-1.80
15626;BMP180;7912;51.376;6.126;2022-12-18T03:41:16;102462.00;;;-1.90
15626;BMP180;7912;51.376;6.126;2022-12-18T03:44:06;102473.00;;;-1.90
15626;BMP180;7912;51.376;6.126;2022-12-18T03:47:03;102456.00;;;-1.90
15626;BMP180;7912;51.376;6.126;2022-12-18T03:50:03;102454.00;;;-1.90
15626;BMP180;7912;51.376;6.126;2022-12-18T03:53:05;102454.00;;;-1.90
15626;BMP180;7912;51.376;6.126;2022-12-18T03:55:35;102456.00;;;-1.90
15626;BMP180;7912;51.376;6.126;2022-12-18T03:58:07;102448.00;;;-1.90
15626;BMP180;7912;51.376;6.126;2022-12-18T04:00:36;102457.00;;;-1.90
15626;BMP180;7912;51.376;6.126;2022-12-18T04:03:04;102457.00;;;-1.80
15626;BMP180;7912;51.376;6.126;2022-12-18T04:05:34;102451.00;;;-1.80
15626;BMP180;7912;51.376;6.126;2022-12-18T04:08:02;102448.00;;;-1.80
15626;BMP180;7912;51.376;6.126;2022-12-18T04:10:30;102443.00;;;-1.80
15626;BMP180;7912;51.376;6.126;2022-12-18T04:12:58;102447.00;;;-1.70
15626;BMP180;7912;51.376;6.126;2022-12-18T04:15:25;102433.00;;;-1.70
15626;BMP180;7912;51.376;6.126;2022-12-18T04:17:53;102442.00;;;-1.70
15626;BMP180;7912;51.376;6.126;2022-12-18T04:20:20;102440.00;;;-1.60
15626;BMP180;7912;51.376;6.126;2022-12-18T04:22:47;102435.00;;;-1.60
15626;BMP180;7912;51.376;6.126;2022-12-18T04:25:15;102444.00;;;-1.60
15626;BMP180;7912;51.376;6.126;2022-12-18T04:27:42;102439.00;;;-1.60
15626;BMP180;7912;51.376;6.126;2022-12-18T04:30:10;102434.00;;;-1.60
15626;BMP180;7912;51.376;6.126;2022-12-18T04:32:40;102433.00;;;-1.60
15626;BMP180;7912;51.376;6.126;2022-12-18T04:35:14;102415.00;;;-1.60
15626;BMP180;7912;51.376;6.126;2022-12-18T04:37:42;102405.00;;;-1.50
15626;BMP180;7912;51.376;6.126;2022-12-18T04:40:10;102411.00;;;-1.50
15626;BMP180;7912;51.376;6.126;2022-12-18T04:42:39;102406.00;;;-1.50
15626;BMP180;7912;51.376;6.126;2022-12-18T04:45:08;102411.00;;;-1.50
15626;BMP180;7912;51.376;6.126;2022-12-18T04:47:35;102412.00;;;-1.50
15626;BMP180;7912;51.376;6.126;2022-12-18T04:50:02;102393.00;;;-1.50
15626;BMP180;7912;51.376;6.126;2022-12-18T04:52:30;102406.00;;;-1.50
15626;BMP180;7912;51.376;6.126;2022-12-18T04:54:59;102400.00;;;-1.50
15626;BMP180;7912;51.376;6.126;2022-12-18T04:57:27;102394.00;;;-1.50
15626;BMP180;7912;51.376;6.126;2022-12-18T04:59:54;102390.00;;;-1.50
15626;BMP180;7912;51.376;6.126;2022-12-18T05:02:21;102393.00;;;-1.40
15626;BMP180;7912;51.376;6.126;2022-12-18T05:04:48;102391.00;;;-1.40
15626;BMP180;7912;51.376;6.126;2022-12-18T05:07:18;102389.00;;;-1.40
15626;BMP180;7912;51.376;6.126;2022-12-18T05:09:46;102402.00;;;-1.40
15626;BMP180;7912;51.376;6.126;2022-12-18T05:12:13;102409.00;;;-1.40
15626;BMP180;7912;51.376;6.126;2022-12-18T05:14:40;102418.00;;;-1.40
15626;BMP180;7912;51.376;6.126;2022-12-18T05:17:08;102412.00;;;-1.30
15626;BMP180;7912;51.376;6.126;2022-12-18T05:19:35;102437.00;;;-1.30
15626;BMP180;7912;51.376;6.126;2022-12-18T05:22:02;102435.00;;;-1.30
15626;BMP180;7912;51.376;6.126;2022-12-18T05:24:30;102426.00;;;-1.30
15626;BMP180;7912;51.376;6.126;2022-12-18T05:27:00;102440.00;;;-1.30
15626;BMP180;7912;51.376;6.126;2022-12-18T05:29:28;102443.00;;;-1.30
15626;BMP180;7912;51.376;6.126;2022-12-18T05:31:55;102448.00;;;-1.20
15626;BMP180;7912;51.376;6.126;2022-12-18T05:34:22;102452.00;;;-1.20
15626;BMP180;7912;51.376;6.126;2022-12-18T05:36:49;102442.00;;;-1.20
15626;BMP180;7912;51.376;6.126;2022-12-18T05:39:17;102450.00;;;-1.20
15626;BMP180;7912;51.376;6.126;2022-12-18T05:41:44;102458.00;;;-1.20
15626;BMP180;7912;51.376;6.126;2022-12-18T05:44:12;102440.00;;;-1.20
15626;BMP180;7912;51.376;6.126;2022-12-18T05:46:39;102457.00;;;-1.20
15626;BMP180;7912;51.376;6.126;2022-12-18T05:49:06;102446.00;;;-1.20
15626;BMP180;7912;51.376;6.126;2022-12-18T05:51:34;102434.00;;;-1.20
15626;BMP180;7912;51.376;6.126;2022-12-18T05:54:01;102442.00;;;-1.20
15626;BMP180;7912;51.376;6.126;2022-12-18T05:56:29;102439.00;;;-1.10
15626;BMP180;7912;51.376;6.126;2022-12-18T05:58:56;102433.00;;;-1.10
15626;BMP180;7912;51.376;6.126;2022-12-18T06:01:26;102428.00;;;-1.10
15626;BMP180;7912;51.376;6.126;2022-12-18T06:03:54;102429.00;;;-1.10
15626;BMP180;7912;51.376;6.126;2022-12-18T06:06:25;102424.00;;;-1.10
15626;BMP180;7912;51.376;6.126;2022-12-18T06:08:54;102415.00;;;-1.10
15626;BMP180;7912;51.376;6.126;2022-12-18T06:11:25;102414.00;;;-1.10
15626;BMP180;7912;51.376;6.126;2022-12-18T06:13:55;102406.00;;;-1.10
15626;BMP180;7912;51.376;6.126;2022-12-18T06:16:26;102417.00;;;-1.10
15626;BMP180;7912;51.376;6.126;2022-12-18T06:18:58;102415.00;;;-1.10
15626;BMP180;7912;51.376;6.126;2022-12-18T06:21:27;102415.00;;;-1.10
15626;BMP180;7912;51.376;6.126;2022-12-18T06:23:55;102409.00;;;-1.10
15626;BMP180;7912;51.376;6.126;2022-12-18T06:26:27;102415.00;;;-1.10
15626;BMP180;7912;51.376;6.126;2022-12-18T06:28:56;102399.00;;;-1.10
15626;BMP180;7912;51.376;6.126;2022-12-18T06:31:25;102390.00;;;-1.10
15626;BMP180;7912;51.376;6.126;2022-12-18T06:33:53;102409.00;;;-1.00
15626;BMP180;7912;51.376;6.126;2022-12-18T06:36:20;102398.00;;;-1.00
15626;BMP180;7912;51.376;6.126;2022-12-18T06:38:48;102395.00;;;-1.00
15626;BMP180;7912;51.376;6.126;2022-12-18T06:41:19;102374.00;;;-1.00
15626;BMP180;7912;51.376;6.126;2022-12-18T06:43:46;102390.00;;;-0.90
15626;BMP180;7912;51.376;6.126;2022-12-18T06:46:14;102374.00;;;-1.00
15626;BMP180;7912;51.376;6.126;2022-12-18T06:48:41;102386.00;;;-1.00
15626;BMP180;7912;51.376;6.126;2022-12-18T06:51:09;102385.00;;;-1.00
15626;BMP180;7912;51.376;6.126;2022-12-18T06:53:36;102382.00;;;-0.90
15626;BMP180;7912;51.376;6.126;2022-12-18T06:56:06;102383.00;;;-0.90
15626;BMP180;7912;51.376;6.126;2022-12-18T06:58:38;102383.00;;;-0.90
15626;BMP180;7912;51.376;6.126;2022-12-18T07:01:10;102390.00;;;-0.90
15626;BMP180;7912;51.376;6.126;2022-12-18T07:03:39;102394.00;;;-1.00
15626;BMP180;7912;51.376;6.126;2022-12-18T07:06:15;102383.00;;;-0.90
15626;BMP180;7912;51.376;6.126;2022-12-18T07:08:43;102367.00;;;-0.90
15626;BMP180;7912;51.376;6.126;2022-12-18T07:11:11;102387.00;;;-0.90
15626;BMP180;7912;51.376;6.126;2022-12-18T07:13:38;102396.00;;;-0.90
15626;BMP180;7912;51.376;6.126;2022-12-18T07:16:13;102397.00;;;-0.90
15626;BMP180;7912;51.376;6.126;2022-12-18T07:18:49;102394.00;;;-0.80
15626;BMP180;7912;51.376;6.126;2022-12-18T07:21:20;102390.00;;;-0.90
15626;BMP180;7912;51.376;6.126;2022-12-18T07:23:50;102384.00;;;-0.90
15626;BMP180;7912;51.376;6.126;2022-12-18T07:26:21;102385.00;;;-0.90
15626;BMP180;7912;51.376;6.126;2022-12-18T07:28:49;102381.00;;;-1.00
15626;BMP180;7912;51.376;6.126;2022-12-18T07:31:20;102381.00;;;-0.90
15626;BMP180;7912;51.376;6.126;2022-12-18T07:33:49;102366.00;;;-1.00
15626;BMP180;7912;51.376;6.126;2022-12-18T07:36:17;102371.00;;;-1.00
15626;BMP180;7912;51.376;6.126;2022-12-18T07:38:47;102362.00;;;-1.00
15626;BMP180;7912;51.376;6.126;2022-12-18T07:41:16;102370.00;;;-1.00
15626;BMP180;7912;51.376;6.126;2022-12-18T07:43:43;102368.00;;;-1.00
15626;BMP180;7912;51.376;6.126;2022-12-18T07:46:12;102363.00;;;-1.00
15626;BMP180;7912;51.376;6.126;2022-12-18T07:48:44;102362.00;;;-1.00
15626;BMP180;7912;51.376;6.126;2022-12-18T07:51:17;102348.00;;;-0.90
15626;BMP180;7912;51.376;6.126;2022-12-18T07:53:45;102346.00;;;-0.90
15626;BMP180;7912;51.376;6.126;2022-12-18T07:56:18;102347.00;;;-0.90
15626;BMP180;7912;51.376;6.126;2022-12-18T07:58:56;102336.00;;;-0.90
15626;BMP180;7912;51.376;6.126;2022-12-18T08:01:24;102338.00;;;-0.90
15626;BMP180;7912;51.376;6.126;2022-12-18T08:03:52;102333.00;;;-0.90
15626;BMP180;7912;51.376;6.126;2022-12-18T08:06:19;102338.00;;;-0.90
15626;BMP180;7912;51.376;6.126;2022-12-18T08:08:55;102327.00;;;-0.80
15626;BMP180;7912;51.376;6.126;2022-12-18T08:11:25;102328.00;;;-0.80
15626;BMP180;7912;51.376;6.126;2022-12-18T08:13:53;102322.00;;;-0.80
15626;BMP180;7912;51.376;6.126;2022-12-18T08:16:21;102329.00;;;-0.80
15626;BMP180;7912;51.376;6.126;2022-12-18T08:18:51;102324.00;;;-0.80
15626;BMP180;7912;51.376;6.126;2022-12-18T08:21:25;102327.00;;;-0.70
15626;BMP180;7912;51.376;6.126;2022-12-18T08:23:55;102307.00;;;-0.70
15626;BMP180;7912;51.376;6.126;2022-12-18T08:26:26;102320.00;;;-0.60
15626;BMP180;7912;51.376;6.126;2022-12-18T08:28:56;102318.00;;;-0.60
15626;BMP180;7912;51.376;6.126;2022-12-18T08:31:27;102343.00;;;-0.50
15626;BMP180;7912;51.376;6.126;2022-12-18T08:33:56;102332.00;;;-0.40
15626;BMP180;7912;51.376;6.126;2022-12-18T08:36:24;102327.00;;;-0.40
15626;BMP180;7912;51.376;6.126;2022-12-18T08:38:53;102332.00;;;-0.30
15626;BMP180;7912;51.376;6.126;2022-12-18T08:41:21;102332.00;;;-0.30
15626;BMP180;7912;51.376;6.126;2022-12-18T08:43:48;102306.00;;;-0.20
15626;BMP180;7912;51.376;6.126;2022-12-18T08:46:38;102314.00;;;-0.20
15626;BMP180;7912;51.376;6.126;2022-12-18T08:49:07;102315.00;;;-0.20
15626;BMP180;7912;51.376;6.126;2022-12-18T08:51:41;102296.00;;;-0.10
15626;BMP180;7912;51.376;6.126;2022-12-18T08:54:12;102332.00;;;-0.10
15626;BMP180;7912;51.376;6.126;2022-12-18T08:56:40;102312.00;;;0.00
15626;BMP180;7912;51.376;6.126;2022-12-18T08:59:09;102338.00;;;0.00
15626;BMP180;7912;51.376;6.126;2022-12-18T09:01:46;102335.00;;;0.00
15626;BMP180;7912;51.376;6.126;2022-12-18T09:04:14;102316.00;;;0.00
15626;BMP180;7912;51.376;6.126;2022-12-18T09:06:42;102302.00;;;0.10
15626;BMP180;7912;51.376;6.126;2022-12-18T09:09:10;102287.00;;;0.20
15626;BMP180;7912;51.376;6.126;2022-12-18T09:11:38;102303.00;;;0.30
15626;BMP180;7912;51.376;6.126;2022-12-18T09:14:06;102299.00;;;0.30
15626;BMP180;7912;51.376;6.126;2022-12-18T09:16:34;102289.00;;;0.40
15626;BMP180;7912;51.376;6.126;2022-12-18T09:19:04;102288.00;;;0.50
15626;BMP180;7912;51.376;6.126;2022-12-18T09:21:34;102292.00;;;0.60
15626;BMP180;7912;51.376;6.126;2022-12-18T09:24:04;102281.00;;;0.70
15626;BMP180;7912;51.376;6.126;2022-12-18T09:26:35;102277.00;;;0.80
15626;BMP180;7912;51.376;6.126;2022-12-18T09:29:03;102283.00;;;0.80
15626;BMP180;7912;51.376;6.126;2022-12-18T09:31:31;102272.00;;;1.00
15626;BMP180;7912;51.376;6.126;2022-12-18T09:33:58;102277.00;;;1.00
15626;BMP180;7912;51.376;6.126;2022-12-18T09:36:26;102288.00;;;1.10
15626;BMP180;7912;51.376;6.126;2022-12-18T09:38:53;102283.00;;;1.10
15626;BMP180;7912;51.376;6.126;2022-12-18T09:41:52;102295.00;;;1.20
15626;BMP180;7912;51.376;6.126;2022-12-18T09:44:42;102280.00;;;1.30
15626;BMP180;7912;51.376;6.126;2022-12-18T09:47:24;102268.00;;;1.30
15626;BMP180;7912;51.376;6.126;2022-12-18T09:49:58;102259.00;;;1.40
15626;BMP180;7912;51.376;6.126;2022-12-18T09:52:34;102257.00;;;1.40
15626;BMP180;7912;51.376;6.126;2022-12-18T09:55:23;102259.00;;;1.50
15626;BMP180;7912;51.376;6.126;2022-12-18T09:58:10;102262.00;;;1.70
15626;BMP180;7912;51.376;6.126;2022-12-18T10:00:40;102275.00;;;1.70
15626;BMP180;7912;51.376;6.126;2022-12-18T10:03:15;102284.00;;;1.70
15626;BMP180;7912;51.376;6.126;2022-12-18T10:05:58;102281.00;;;1.80
15626;BMP180;7912;51.376;6.126;2022-12-18T10:17:28;102251.00;;;1.90
15626;BMP180;7912;51.376;6.126;2022-12-18T10:23:12;102239.00;;;2.00
15626;BMP180;7912;51.376;6.126;2022-12-18T10:25:53;102231.00;;;2.10
15626;BMP180;7912;51.376;6.126;2022-12-18T10:28:23;102230.00;;;2.10
15626;BMP180;7912;51.376;6.126;2022-12-18T10:30:51;102216.00;;;2.20
15626;BMP180;7912;51.376;6.126;2022-12-18T10:33:23;102233.00;;;2.20
15626;BMP180;7912;51.376;6.126;2022-12-18T10:35:51;102219.00;;;2.30
15626;BMP180;7912;51.376;6.126;2022-12-18T10:38:23;102223.00;;;2.40
15626;BMP180;7912;51.376;6.126;2022-12-18T10:41:06;102217.00;;;2.50
15626;BMP180;7912;51.376;6.126;2022-12-18T10:43:39;102201.00;;;2.60
15626;BMP180;7912;51.376;6.126;2022-12-18T10:48:55;102212.00;;;2.70
15626;BMP180;7912;51.376;6.126;2022-12-18T10:51:35;102218.00;;;2.80
15626;BMP180;7912;51.376;6.126;2022-12-18T10:54:18;102205.00;;;2.80
15626;BMP180;7912;51.376;6.126;2022-12-18T10:56:48;102199.00;;;2.80
15626;BMP180;7912;51.376;6.126;2022-12-18T10:59:17;102185.00;;;2.90
15626;BMP180;7912;51.376;6.126;2022-12-18T11:04:30;102194.00;;;3.10
15626;BMP180;7912;51.376;6.126;2022-12-18T11:07:06;102187.00;;;3.20
15626;BMP180;7912;51.376;6.126;2022-12-18T11:09:36;102178.00;;;3.20
15626;BMP180;7912;51.376;6.126;2022-12-18T11:12:24;102170.00;;;3.30
15626;BMP180;7912;51.376;6.126;2022-12-18T11:14:55;102167.00;;;3.40
15626;BMP180;7912;51.376;6.126;2022-12-18T11:17:35;102152.00;;;3.40
15626;BMP180;7912;51.376;6.126;2022-12-18T11:20:14;102146.00;;;3.40
15626;BMP180;7912;51.376;6.126;2022-12-18T11:22:58;102157.00;;;3.40
15626;BMP180;7912;51.376;6.126;2022-12-18T11:25:29;102152.00;;;3.40
15626;BMP180;7912;51.376;6.126;2022-12-18T11:28:28;102146.00;;;3.40
15626;BMP180;7912;51.376;6.126;2022-12-18T11:34:11;102142.00;;;3.40
15626;BMP180;7912;51.376;6.126;2022-12-18T11:37:00;102128.00;;;3.40
15626;BMP180;7912;51.376;6.126;2022-12-18T11:39:49;102138.00;;;3.30
15626;BMP180;7912;51.376;6.126;2022-12-18T11:48:13;102121.00;;;3.40
15626;BMP180;7912;51.376;6.126;2022-12-18T11:50:50;102129.00;;;3.50
15626;BMP180;7912;51.376;6.126;2022-12-18T11:53:21;102137.00;;;3.50
15626;BMP180;7912;51.376;6.126;2022-12-18T11:59:08;102108.00;;;3.50
15626;BMP180;7912;51.376;6.126;2022-12-18T12:07:49;102130.00;;;3.70
15626;BMP180;7912;51.376;6.126;2022-12-18T12:16:18;102113.00;;;3.70
15626;BMP180;7912;51.376;6.126;2022-12-18T12:22:37;102101.00;;;3.70
15626;BMP180;7912;51.376;6.126;2022-12-18T12:25:21;102095.00;;;3.70
15626;BMP180;7912;51.376;6.126;2022-12-18T12:34:24;102087.00;;;3.80
15626;BMP180;7912;51.376;6.126;2022-12-18T12:37:35;102084.00;;;3.90
15626;BMP180;7912;51.376;6.126;2022-12-18T12:40:07;102078.00;;;3.90
15626;BMP180;7912;51.376;6.126;2022-12-18T12:43:29;102078.00;;;4.00
15626;BMP180;7912;51.376;6.126;2022-12-18T12:46:08;102075.00;;;4.10
15626;BMP180;7912;51.376;6.126;2022-12-18T12:48:57;102072.00;;;4.10
15626;BMP180;7912;51.376;6.126;2022-12-18T12:51:38;102080.00;;;4.10
15626;BMP180;7912;51.376;6.126;2022-12-18T12:54:23;102067.00;;;4.20
15626;BMP180;7912;51.376;6.126;2022-12-18T13:08:26;102028.00;;;4.30
15626;BMP180;7912;51.376;6.126;2022-12-18T13:10:59;102032.00;;;4.30
15626;BMP180;7912;51.376;6.126;2022-12-18T13:13:55;102024.00;;;4.30
15626;BMP180;7912;51.376;6.126;2022-12-18T13:16:25;102019.00;;;4.40
15626;BMP180;7912;51.376;6.126;2022-12-18T13:18:56;102020.00;;;4.40
15626;BMP180;7912;51.376;6.126;2022-12-18T13:21:28;102016.00;;;4.30
15626;BMP180;7912;51.376;6.126;2022-12-18T13:24:26;102014.00;;;4.20
15626;BMP180;7912;51.376;6.126;2022-12-18T13:26:55;102011.00;;;4.30
15626;BMP180;7912;51.376;6.126;2022-12-18T13:29:51;102001.00;;;4.30
15626;BMP180;7912;51.376;6.126;2022-12-18T13:32:23;102011.00;;;4.30
15626;BMP180;7912;51.376;6.126;2022-12-18T13:37:52;101999.00;;;4.30
15626;BMP180;7912;51.376;6.126;2022-12-18T13:48:38;101986.00;;;4.30
15626;BMP180;7912;51.376;6.126;2022-12-18T13:51:09;101985.00;;;4.40
15626;BMP180;7912;51.376;6.126;2022-12-18T13:54:20;101986.00;;;4.30
15626;BMP180;7912;51.376;6.126;2022-12-18T13:56:49;101980.00;;;4.30
15626;BMP180;7912;51.376;6.126;2022-12-18T13:59:34;101985.00;;;4.30
15626;BMP180;7912;51.376;6.126;2022-12-18T14:02:23;101987.00;;;4.20
15626;BMP180;7912;51.376;6.126;2022-12-18T14:04:52;101986.00;;;4.20
15626;BMP180;7912;51.376;6.126;2022-12-18T14:07:29;101980.00;;;4.20
15626;BMP180;7912;51.376;6.126;2022-12-18T14:10:15;101969.00;;;4.10
15626;BMP180;7912;51.376;6.126;2022-12-18T14:13:08;101960.00;;;4.10
15626;BMP180;7912;51.376;6.126;2022-12-18T14:15:43;101957.00;;;4.10
15626;BMP180;7912;51.376;6.126;2022-12-18T14:18:44;101969.00;;;4.10
15626;BMP180;7912;51.376;6.126;2022-12-18T14:21:25;101965.00;;;4.10
15626;BMP180;7912;51.376;6.126;2022-12-18T14:24:16;101972.00;;;4.10
15626;BMP180;7912;51.376;6.126;2022-12-18T14:26:49;101965.00;;;4.10
15626;BMP180;7912;51.376;6.126;2022-12-18T14:29:30;101977.00;;;4.10
15626;BMP180;7912;51.376;6.126;2022-12-18T14:32:16;101977.00;;;4.10
15626;BMP180;7912;51.376;6.126;2022-12-18T14:34:54;101974.00;;;4.10
15626;BMP180;7912;51.376;6.126;2022-12-18T14:37:26;101980.00;;;4.10
15626;BMP180;7912;51.376;6.126;2022-12-18T14:39:58;101982.00;;;4.00
15626;BMP180;7912;51.376;6.126;2022-12-18T14:42:37;101973.00;;;4.00
15626;BMP180;7912;51.376;6.126;2022-12-18T14:45:41;101959.00;;;4.00
15626;BMP180;7912;51.376;6.126;2022-12-18T14:48:37;101974.00;;;4.00
15626;BMP180;7912;51.376;6.126;2022-12-18T14:51:17;101978.00;;;3.90
15626;BMP180;7912;51.376;6.126;2022-12-18T14:53:48;101978.00;;;4.00
15626;BMP180;7912;51.376;6.126;2022-12-18T14:56:31;101969.00;;;4.00
15626;BMP180;7912;51.376;6.126;2022-12-18T14:59:20;101952.00;;;4.00
15626;BMP180;7912;51.376;6.126;2022-12-18T15:02:24;101976.00;;;4.00
15626;BMP180;7912;51.376;6.126;2022-12-18T15:08:34;101979.00;;;3.90
15626;BMP180;7912;51.376;6.126;2022-12-18T15:11:03;101972.00;;;3.90
15626;BMP180;7912;51.376;6.126;2022-12-18T15:13:37;101966.00;;;3.90
15626;BMP180;7912;51.376;6.126;2022-12-18T15:16:12;101965.00;;;3.90
15626;BMP180;7912;51.376;6.126;2022-12-18T15:18:43;101975.00;;;3.90
15626;BMP180;7912;51.376;6.126;2022-12-18T15:21:20;101962.00;;;3.90
15626;BMP180;7912;51.376;6.126;2022-12-18T15:23:51;101970.00;;;3.90
15626;BMP180;7912;51.376;6.126;2022-12-18T15:26:21;101966.00;;;4.00
15626;BMP180;7912;51.376;6.126;2022-12-18T15:28:54;101964.00;;;3.90
15626;BMP180;7912;51.376;6.126;2022-12-18T15:31:33;101961.00;;;4.00
15626;BMP180;7912;51.376;6.126;2022-12-18T15:34:19;101958.00;;;3.90
15626;BMP180;7912;51.376;6.126;2022-12-18T15:36:47;101952.00;;;4.00
15626;BMP180;7912;51.376;6.126;2022-12-18T15:39:20;101947.00;;;3.90
15626;BMP180;7912;51.376;6.126;2022-12-18T15:41:47;101938.00;;;3.90
15626;BMP180;7912;51.376;6.126;2022-12-18T15:44:37;101968.00;;;3.90
15626;BMP180;7912;51.376;6.126;2022-12-18T15:47:12;101953.00;;;3.90
15626;BMP180;7912;51.376;6.126;2022-12-18T15:49:39;101943.00;;;3.90
15626;BMP180;7912;51.376;6.126;2022-12-18T15:52:13;101948.00;;;3.90
15626;BMP180;7912;51.376;6.126;2022-12-18T15:54:40;101947.00;;;3.90
15626;BMP180;7912;51.376;6.126;2022-12-18T15:57:26;101953.00;;;4.00
15626;BMP180;7912;51.376;6.126;2022-12-18T15:59:56;101930.00;;;4.00
15626;BMP180;7912;51.376;6.126;2022-12-18T16:02:26;101944.00;;;4.00
15626;BMP180;7912;51.376;6.126;2022-12-18T16:04:56;101949.00;;;4.00
15626;BMP180;7912;51.376;6.126;2022-12-18T16:07:23;101949.00;;;4.00
15626;BMP180;7912;51.376;6.126;2022-12-18T16:09:56;101953.00;;;3.90
15626;BMP180;7912;51.376;6.126;2022-12-18T16:12:27;101951.00;;;3.90
15626;BMP180;7912;51.376;6.126;2022-12-18T16:14:54;101956.00;;;3.90
15626;BMP180;7912;51.376;6.126;2022-12-18T16:17:21;101951.00;;;3.90
15626;BMP180;7912;51.376;6.126;2022-12-18T16:19:49;101945.00;;;3.90
15626;BMP180;7912;51.376;6.126;2022-12-18T16:22:24;101954.00;;;3.90
15626;BMP180;7912;51.376;6.126;2022-12-18T16:24:53;101953.00;;;3.90
15626;BMP180;7912;51.376;6.126;2022-12-18T16:27:22;101948.00;;;3.90
15626;BMP180;7912;51.376;6.126;2022-12-18T16:29:50;101944.00;;;3.90
15626;BMP180;7912;51.376;6.126;2022-12-18T16:32:20;101937.00;;;3.90